Accueil
METAR-TAF:

METAR-TAF

Aéroports :

Aéroport de Dundee

Dundee, Écosse

latitude: 56-27N, longitude: 003-01W, altitude: 4 m

Observation

Le bulletin a été fait il y a 37 minutes, à 11:50 UTC
Vent 4 kt de sud-est
Température 5°C
Humidité 75%
Pression 1022 hPa
Visibilité 10 km ou plus
Quelques nuages à une hauteur de 3000 ft

METAR: EGPN 141150Z 13004KT 9999 FEW030 05/01 Q1022

Heure: 12:27 (12:27 UTC)

Prévision

Le bulletin a été fait il y a 1 heure et 31 minutes, à 10:56 UTC
Prévision valable du 14 à 12 UTC au 14 à 21 UTC
Vent 5 kt de est/sud-est
Visibilité 10 km ou plus
Quelques nuages à une hauteur de 3000 ft

TAF: EGPN 141056Z 1412/1421 12005KT 9999 FEW030

Observations et prévisions météorologiques de plus de 4000 aéroports (messages METAR et TAF).

Les stations disponibles sont représentées par des disques jaunes et rouges sur la carte.

Passer la souris dessus pour voir le nom de la station.

Cliquer dessus pour voir les observations et prévisions météorologiques.

Pour changer de carte: cliquez sur les boutons verts avec une croix noire pour zoomer, sur le bouton vert avec un tiret pour effectuer un zoom arrière, ou sur les flèches vertes pour les cartes adjacentes.


METAR-TAF: